Time;durP1;ratioP1;P1;durP2;ratioP2;P2;SDS_P1;SDS_P2;PMS_P1;PMS_P2;Temp;Humidity;BMP_temperature;BMP_pressure;BME280_temperature;BME280_humidity;BME280_pressure;Samples;Min_cycle;Max_cycle;Signal;HPM_P1;HPM_P2
2021/03/27 00:00:59;;;;;;;;;;;7.00;99.90;;;;;;5076709;28;19908;-60
2021/03/27 00:03:27;;;;;;;;;;;7.00;99.90;;;;;;5075873;28;20245;-61
2021/03/27 00:06:01;;;;;;;;;;;6.90;99.90;;;;;;5073389;28;19909;-60
2021/03/27 00:08:32;;;;;;;;;;;6.90;99.90;;;;;;5093357;28;19916;-60
2021/03/27 00:10:59;;;;;;;;;;;6.90;99.90;;;;;;5080038;28;19904;-61
2021/03/27 00:13:32;;;;;;;;;;;6.90;99.90;;;;;;5080473;28;19909;-61
2021/03/27 00:16:21;;;;;;;;;;;6.90;99.90;;;;;;5084496;28;19907;-61
2021/03/27 00:18:47;;;;;;;;;;;6.90;99.90;;;;;;5067916;28;19916;-61
2021/03/27 00:21:13;;;;;;;;;;;6.90;99.90;;;;;;5084923;28;19908;-60
2021/03/27 00:23:50;;;;;;;;;;;6.90;99.90;;;;;;5077153;28;19912;-61
2021/03/27 00:26:26;;;;;;;;;;;6.90;99.90;;;;;;5075585;28;19927;-61
2021/03/27 00:28:55;;;;;;;;;;;6.90;99.90;;;;;;5075003;28;19943;-61
2021/03/27 00:31:22;;;;;;;;;;;6.90;99.90;;;;;;5081513;28;19908;-61
2021/03/27 00:33:53;;;;;;;;;;;6.90;99.90;;;;;;5082637;28;19935;-61
2021/03/27 00:36:20;;;;;;;;;;;6.90;99.90;;;;;;5083086;28;19912;-61
2021/03/27 00:39:07;;;;;;;;;;;6.90;99.90;;;;;;5087470;28;19916;-61
2021/03/27 00:41:37;;;;;;;;;;;6.90;99.90;;;;;;5074039;28;19908;-61
2021/03/27 00:44:03;;;;;;;;;;;6.90;99.90;;;;;;5091553;28;19916;-61
2021/03/27 00:46:29;;;;;;;;;;;6.90;99.90;;;;;;5090986;28;19912;-61
2021/03/27 00:48:58;;;;;;;;;;;6.90;99.90;;;;;;5091415;28;19922;-61
2021/03/27 00:51:26;;;;;;;;;;;6.90;99.90;;;;;;5084275;28;19917;-61
2021/03/27 00:53:59;;;;;;;;;;;6.90;99.90;;;;;;5090777;28;19915;-61
2021/03/27 00:56:28;;;;;;;;;;;6.90;99.90;;;;;;5071963;28;19909;-60
2021/03/27 00:59:03;;;;;;;;;;;6.90;99.90;;;;;;5085397;28;19919;-61
2021/03/27 01:01:29;;;;;;;;;;;6.90;99.90;;;;;;5085302;28;19912;-61
2021/03/27 01:03:57;;;;;;;;;;;6.90;99.90;;;;;;5086763;28;19908;-61
2021/03/27 01:06:30;;;;;;;;;;;7.00;99.90;;;;;;5071913;28;19908;-61
2021/03/27 01:08:56;;;;;;;;;;;7.00;99.90;;;;;;5079323;28;20388;-61
2021/03/27 01:11:31;;;;;;;;;;;7.00;99.90;;;;;;5090938;28;19912;-61
2021/03/27 01:13:58;;;;;;;;;;;7.00;99.90;;;;;;5089109;28;20316;-61
2021/03/27 01:16:27;;;;;;;;;;;7.00;99.90;;;;;;5076014;28;19920;-61
2021/03/27 01:19:04;;;;;;;;;;;7.00;99.90;;;;;;5079303;28;19908;-61
2021/03/27 01:21:31;;;;;;;;;;;7.00;99.90;;;;;;5075192;28;20277;-60
2021/03/27 01:23:58;;;;;;;;;;;7.20;99.90;;;;;;5072206;28;19908;-61
2021/03/27 01:26:25;;;;;;;;;;;7.20;99.90;;;;;;5072864;28;19931;-61
2021/03/27 01:28:57;;;;;;;;;;;7.10;99.90;;;;;;5071196;28;19920;-60
2021/03/27 01:31:38;;;;;;;;;;;7.20;99.90;;;;;;5073549;28;19916;-61
2021/03/27 01:34:22;;;;;;;;;;;7.20;99.90;;;;;;5090286;28;20368;-61
2021/03/27 01:36:51;;;;;;;;;;;7.30;99.90;;;;;;5091253;28;19973;-61
2021/03/27 01:39:19;;;;;;;;;;;7.40;99.90;;;;;;5081333;28;19912;-60
2021/03/27 01:41:51;;;;;;;;;;;7.40;99.90;;;;;;5072642;28;19908;-61
2021/03/27 01:44:35;;;;;;;;;;;7.40;99.90;;;;;;5079062;28;19911;-61
2021/03/27 01:47:10;;;;;;;;;;;7.40;99.90;;;;;;5083658;28;19915;-61
2021/03/27 01:49:54;;;;;;;;;;;7.40;99.90;;;;;;5089774;28;19912;-61
2021/03/27 01:52:26;;;;;;;;;;;7.30;99.90;;;;;;5082761;28;19908;-61
2021/03/27 01:55:07;;;;;;;;;;;7.30;99.90;;;;;;5082013;28;19927;-61
2021/03/27 01:57:39;;;;;;;;;;;7.30;99.90;;;;;;5089036;28;20287;-60
2021/03/27 02:00:14;;;;;;;;;;;7.20;99.90;;;;;;5072370;28;19908;-61
2021/03/27 02:02:44;;;;;;;;;;;7.30;99.90;;;;;;5080833;28;19919;-61
2021/03/27 02:05:22;;;;;;;;;;;7.30;99.90;;;;;;5072445;28;19908;-61
2021/03/27 02:07:54;;;;;;;;;;;7.30;99.90;;;;;;5071312;28;19939;-61
2021/03/27 02:10:30;;;;;;;;;;;7.20;99.90;;;;;;5092456;28;19915;-61
2021/03/27 02:13:01;;;;;;;;;;;7.20;99.90;;;;;;5081053;28;19915;-61
2021/03/27 02:15:41;;;;;;;;;;;7.20;99.90;;;;;;5076276;28;19923;-62
2021/03/27 02:18:12;;;;;;;;;;;7.20;99.90;;;;;;5081956;28;20308;-61
2021/03/27 02:20:50;;;;;;;;;;;7.20;99.90;;;;;;5077994;28;19908;-61
2021/03/27 02:23:18;;;;;;;;;;;7.20;99.90;;;;;;5091484;28;19908;-61
2021/03/27 02:26:03;;;;;;;;;;;7.20;99.90;;;;;;5077680;28;19905;-61
2021/03/27 02:28:38;;;;;;;;;;;7.20;99.90;;;;;;5083616;28;20452;-61
2021/03/27 02:31:04;;;;;;;;;;;7.30;99.90;;;;;;5088604;28;19912;-61
2021/03/27 02:33:37;;;;;;;;;;;7.30;99.90;;;;;;5095549;28;20410;-61
2021/03/27 02:36:06;;;;;;;;;;;7.40;99.90;;;;;;5094333;28;19923;-61
2021/03/27 02:38:48;;;;;;;;;;;7.40;99.90;;;;;;5080062;28;19912;-61
2021/03/27 02:41:33;;;;;;;;;;;7.30;99.90;;;;;;5086133;28;19911;-61
2021/03/27 02:44:00;;;;;;;;;;;7.40;99.90;;;;;;5085916;28;19911;-61
2021/03/27 02:46:45;;;;;;;;;;;7.40;99.90;;;;;;5089592;28;19915;-61
2021/03/27 02:49:26;;;;;;;;;;;7.40;99.90;;;;;;5094810;28;19919;-61
2021/03/27 02:51:57;;;;;;;;;;;7.30;99.90;;;;;;5079872;28;19908;-61
2021/03/27 02:54:24;;;;;;;;;;;7.30;99.90;;;;;;5088614;28;19916;-61
2021/03/27 02:57:02;;;;;;;;;;;7.30;99.90;;;;;;5074225;28;19915;-61
2021/03/27 02:59:28;;;;;;;;;;;7.30;99.90;;;;;;5075393;28;19912;-61
2021/03/27 03:02:12;;;;;;;;;;;7.30;99.90;;;;;;5088866;28;19915;-61
2021/03/27 03:04:44;;;;;;;;;;;7.30;99.90;;;;;;5092585;28;19958;-61
2021/03/27 03:07:19;;;;;;;;;;;7.30;99.90;;;;;;5087824;28;19924;-61
2021/03/27 03:09:45;;;;;;;;;;;7.30;99.90;;;;;;5075100;28;19917;-61
2021/03/27 03:12:20;;;;;;;;;;;7.20;99.90;;;;;;5082107;28;19954;-61
2021/03/27 03:14:52;;;;;;;;;;;7.20;99.90;;;;;;5085371;28;19915;-61
2021/03/27 03:17:33;;;;;;;;;;;7.20;99.90;;;;;;5087511;28;19908;-61
2021/03/27 03:20:05;;;;;;;;;;;7.20;99.90;;;;;;5074964;28;19908;-61
2021/03/27 03:22:32;;;;;;;;;;;7.30;99.90;;;;;;5086184;28;19908;-61
2021/03/27 03:24:59;;;;;;;;;;;7.30;99.90;;;;;;5081354;28;19908;-61
2021/03/27 03:27:28;;;;;;;;;;;7.30;99.90;;;;;;5083689;28;19919;-61
2021/03/27 03:30:00;;;;;;;;;;;7.40;99.90;;;;;;5082122;28;20285;-61
2021/03/27 03:32:32;;;;;;;;;;;7.30;99.90;;;;;;5082399;28;19908;-61
2021/03/27 03:35:00;;;;;;;;;;;7.40;99.90;;;;;;5093352;28;19914;-61
2021/03/27 03:37:45;;;;;;;;;;;7.40;99.90;;;;;;5092785;28;19908;-61
2021/03/27 03:40:16;;;;;;;;;;;7.50;99.90;;;;;;5083893;28;19907;-61
2021/03/27 03:42:42;;;;;;;;;;;7.50;99.90;;;;;;5084850;28;19908;-60
2021/03/27 03:45:15;;;;;;;;;;;7.50;99.90;;;;;;5093201;28;19914;-61
2021/03/27 03:47:54;;;;;;;;;;;7.50;99.90;;;;;;5086234;28;19917;-61
2021/03/27 03:50:38;;;;;;;;;;;7.60;99.90;;;;;;5077940;28;19919;-61
2021/03/27 03:53:09;;;;;;;;;;;7.50;99.90;;;;;;5074147;28;19908;-61
2021/03/27 03:55:38;;;;;;;;;;;7.60;99.90;;;;;;5074176;28;19912;-61
2021/03/27 03:58:19;;;;;;;;;;;7.60;99.90;;;;;;5090057;28;19908;-61
2021/03/27 04:00:50;;;;;;;;;;;7.60;99.90;;;;;;5084246;28;19912;-61
2021/03/27 04:03:31;;;;;;;;;;;7.50;99.90;;;;;;5075634;28;19912;-61
2021/03/27 04:06:20;;;;;;;;;;;7.50;99.90;;;;;;5078559;28;19915;-61
2021/03/27 04:08:46;;;;;;;;;;;7.40;99.90;;;;;;5087686;28;19923;-60
2021/03/27 04:11:31;;;;;;;;;;;7.50;99.90;;;;;;5076971;28;20357;-60
2021/03/27 04:13:57;;;;;;;;;;;7.40;99.90;;;;;;5093254;28;19908;-60
2021/03/27 04:16:23;;;;;;;;;;;7.40;99.90;;;;;;5089821;28;19911;-60
2021/03/27 04:18:52;;;;;;;;;;;7.40;99.90;;;;;;5079662;28;19908;-60
2021/03/27 04:21:29;;;;;;;;;;;7.30;99.90;;;;;;5080443;28;20289;-60
2021/03/27 04:24:09;;;;;;;;;;;7.30;99.90;;;;;;5081003;28;19908;-60
2021/03/27 04:26:47;;;;;;;;;;;7.20;99.90;;;;;;5089575;28;20364;-61
2021/03/27 04:29:15;;;;;;;;;;;7.30;99.90;;;;;;5092357;28;19960;-61
2021/03/27 04:31:43;;;;;;;;;;;7.30;99.90;;;;;;5093260;28;20407;-60
2021/03/27 04:34:09;;;;;;;;;;;7.30;99.90;;;;;;5082187;28;19908;-60
2021/03/27 04:36:39;;;;;;;;;;;7.30;99.90;;;;;;5090251;28;19916;-61
2021/03/27 04:39:17;;;;;;;;;;;7.30;99.90;;;;;;5072914;28;19913;-61
2021/03/27 04:41:45;;;;;;;;;;;7.30;99.90;;;;;;5084692;28;19908;-61
2021/03/27 04:44:17;;;;;;;;;;;7.30;99.90;;;;;;5085659;28;19911;-61
2021/03/27 04:46:50;;;;;;;;;;;7.30;99.90;;;;;;5086992;28;19908;-61
2021/03/27 04:49:21;;;;;;;;;;;7.40;99.90;;;;;;5088645;28;20399;-61
2021/03/27 04:52:00;;;;;;;;;;;7.30;99.90;;;;;;5073112;28;19905;-61
2021/03/27 04:54:45;;;;;;;;;;;7.40;99.90;;;;;;5061824;28;19904;-61
2021/03/27 04:57:22;;;;;;;;;;;7.40;99.90;;;;;;5071340;28;19919;-61
2021/03/27 04:59:48;;;;;;;;;;;7.40;99.90;;;;;;5084602;28;19912;-61
2021/03/27 05:02:15;;;;;;;;;;;7.30;99.90;;;;;;5093106;28;19911;-60
2021/03/27 05:04:49;;;;;;;;;;;7.20;99.90;;;;;;5092923;28;19915;-61
2021/03/27 05:07:41;;;;;;;;;;;7.20;99.90;;;;;;5093051;28;19904;-61
2021/03/27 05:10:14;;;;;;;;;;;7.20;99.90;;;;;;5084315;28;19916;-62
2021/03/27 05:12:43;;;;;;;;;;;7.20;99.90;;;;;;5072810;28;19909;-61
2021/03/27 05:15:12;;;;;;;;;;;7.20;99.90;;;;;;5091750;28;19908;-61
2021/03/27 05:17:38;;;;;;;;;;;7.20;99.90;;;;;;5090608;28;19916;-61
2021/03/27 05:20:08;;;;;;;;;;;7.10;99.90;;;;;;5091999;28;19908;-61
2021/03/27 05:22:43;;;;;;;;;;;7.10;99.90;;;;;;5089522;28;19915;-61
2021/03/27 05:25:22;;;;;;;;;;;7.10;99.90;;;;;;5090719;28;19931;-61
2021/03/27 05:27:54;;;;;;;;;;;7.10;99.90;;;;;;5091325;28;19908;-61
2021/03/27 05:30:32;;;;;;;;;;;7.00;99.90;;;;;;5071443;28;19920;-61
2021/03/27 05:33:16;;;;;;;;;;;7.00;99.90;;;;;;5081589;28;19908;-61
2021/03/27 05:35:48;;;;;;;;;;;7.10;99.90;;;;;;5072533;28;20280;-61
2021/03/27 05:38:20;;;;;;;;;;;7.20;99.90;;;;;;5073609;28;19909;-61
2021/03/27 05:40:55;;;;;;;;;;;7.20;99.90;;;;;;5077393;28;19912;-61
2021/03/27 05:43:28;;;;;;;;;;;7.20;99.90;;;;;;5081102;28;19927;-61
2021/03/27 05:46:06;;;;;;;;;;;7.30;99.90;;;;;;5082968;28;19915;-61
2021/03/27 05:48:46;;;;;;;;;;;7.30;99.90;;;;;;5088737;28;19916;-61
2021/03/27 05:51:15;;;;;;;;;;;7.30;99.90;;;;;;5081174;28;19923;-61
2021/03/27 05:53:57;;;;;;;;;;;7.30;99.90;;;;;;5090929;28;19927;-61
2021/03/27 05:56:41;;;;;;;;;;;7.30;99.90;;;;;;5075281;28;19932;-60
2021/03/27 05:59:22;;;;;;;;;;;7.40;99.90;;;;;;5076689;28;19908;-61
2021/03/27 06:01:52;;;;;;;;;;;7.50;99.90;;;;;;5076495;28;20258;-61
2021/03/27 06:04:26;;;;;;;;;;;7.40;99.90;;;;;;5076690;28;19908;-61
2021/03/27 06:07:11;;;;;;;;;;;7.40;99.90;;;;;;5077182;28;20300;-61
2021/03/27 06:09:49;;;;;;;;;;;7.40;99.90;;;;;;5079858;28;19930;-61
2021/03/27 06:12:18;;;;;;;;;;;7.50;99.90;;;;;;5075982;28;19916;-61
2021/03/27 06:15:02;;;;;;;;;;;7.40;99.90;;;;;;5083323;28;19915;-61
2021/03/27 06:17:39;;;;;;;;;;;7.50;99.90;;;;;;5094318;28;19915;-61
2021/03/27 06:20:15;;;;;;;;;;;7.50;99.90;;;;;;5079943;28;19908;-60
2021/03/27 06:22:47;;;;;;;;;;;7.40;99.90;;;;;;5086942;28;19912;-60
2021/03/27 06:25:32;;;;;;;;;;;7.40;99.90;;;;;;5088979;28;19908;-60
2021/03/27 06:28:07;;;;;;;;;;;7.50;99.90;;;;;;5095320;28;20364;-60
2021/03/27 06:30:53;;;;;;;;;;;7.50;99.90;;;;;;5094073;28;19920;-61
2021/03/27 06:33:38;;;;;;;;;;;7.50;99.90;;;;;;5064163;28;20280;-61
2021/03/27 06:36:16;;;;;;;;;;;7.60;99.90;;;;;;5089398;28;19931;-61
2021/03/27 06:38:45;;;;;;;;;;;7.50;99.90;;;;;;5074963;28;20300;-61
2021/03/27 06:41:26;;;;;;;;;;;7.50;99.90;;;;;;5086480;28;19919;-60
2021/03/27 06:43:55;;;;;;;;;;;7.50;99.90;;;;;;5092861;28;19916;-61
2021/03/27 06:46:24;;;;;;;;;;;7.50;99.90;;;;;;5088105;28;19912;-61
2021/03/27 06:49:08;;;;;;;;;;;7.60;99.90;;;;;;5086389;28;19916;-61
2021/03/27 06:51:49;;;;;;;;;;;7.60;99.90;;;;;;5075521;28;19931;-61
2021/03/27 06:54:30;;;;;;;;;;;7.70;99.90;;;;;;5076106;28;20403;-61
2021/03/27 06:57:16;;;;;;;;;;;7.90;99.90;;;;;;5088038;28;20272;-60
2021/03/27 06:59:57;;;;;;;;;;;7.90;99.90;;;;;;5065377;28;19912;-61
2021/03/27 07:02:29;;;;;;;;;;;8.00;99.90;;;;;;5085268;28;19912;-60
2021/03/27 07:05:07;;;;;;;;;;;8.00;99.90;;;;;;5077350;28;19908;-61
2021/03/27 07:07:51;;;;;;;;;;;8.10;99.90;;;;;;5085474;28;19904;-61
2021/03/27 07:10:35;;;;;;;;;;;8.20;99.90;;;;;;5086226;28;19916;-60
2021/03/27 07:13:20;;;;;;;;;;;8.10;99.90;;;;;;5095203;28;20375;-61
2021/03/27 07:15:50;;;;;;;;;;;8.20;99.90;;;;;;5094484;28;19911;-61
2021/03/27 07:18:35;;;;;;;;;;;8.10;99.90;;;;;;5092692;28;19908;-61
2021/03/27 07:21:04;;;;;;;;;;;8.10;99.90;;;;;;5081524;28;19908;-61
2021/03/27 07:23:50;;;;;;;;;;;8.20;99.90;;;;;;5076390;28;19915;-61
2021/03/27 07:26:41;;;;;;;;;;;8.30;99.90;;;;;;5090040;28;19908;-61
2021/03/27 07:29:32;;;;;;;;;;;8.40;99.90;;;;;;5089103;28;19923;-61
2021/03/27 07:32:04;;;;;;;;;;;8.50;99.90;;;;;;5086921;28;19912;-61
2021/03/27 07:34:47;;;;;;;;;;;8.60;99.90;;;;;;5077900;28;20387;-61
2021/03/27 07:37:22;;;;;;;;;;;8.50;99.90;;;;;;5088575;28;19908;-62
2021/03/27 07:39:51;;;;;;;;;;;8.40;99.90;;;;;;5103559;28;19907;-61
2021/03/27 07:42:17;;;;;;;;;;;8.30;99.90;;;;;;5115108;28;19903;-61
2021/03/27 07:45:01;;;;;;;;;;;8.20;99.90;;;;;;5094310;28;19940;-61
2021/03/27 07:47:48;;;;;;;;;;;8.20;99.90;;;;;;5092796;28;19915;-61
2021/03/27 07:50:30;;;;;;;;;;;8.10;99.90;;;;;;5088147;28;20287;-61
2021/03/27 07:53:15;;;;;;;;;;;8.10;99.90;;;;;;5075618;28;19916;-61
2021/03/27 07:55:47;;;;;;;;;;;8.10;99.90;;;;;;5076878;28;20791;-61
2021/03/27 07:58:19;;;;;;;;;;;8.10;99.90;;;;;;5079343;28;19919;-61
2021/03/27 08:00:47;;;;;;;;;;;8.00;99.90;;;;;;5081938;28;19912;-61
2021/03/27 08:03:26;;;;;;;;;;;8.10;99.90;;;;;;5080862;28;19909;-61
2021/03/27 08:05:55;;;;;;;;;;;8.10;99.90;;;;;;5079810;28;19912;-62
2021/03/27 08:08:26;;;;;;;;;;;8.20;99.90;;;;;;5082252;28;19931;-62
2021/03/27 08:10:55;;;;;;;;;;;8.30;99.90;;;;;;5078694;28;19916;-61
2021/03/27 08:13:29;;;;;;;;;;;8.40;99.90;;;;;;5078570;28;20320;-62
2021/03/27 08:15:57;;;;;;;;;;;8.40;99.90;;;;;;5078423;28;19912;-61
2021/03/27 08:18:36;;;;;;;;;;;8.40;99.90;;;;;;5087513;28;19935;-62
2021/03/27 08:21:20;;;;;;;;;;;8.50;99.90;;;;;;5083669;28;19912;-61
2021/03/27 08:23:46;;;;;;;;;;;8.70;99.90;;;;;;5082132;28;19904;-62
2021/03/27 08:26:15;;;;;;;;;;;8.90;99.90;;;;;;5079745;28;20374;-60
2021/03/27 08:28:59;;;;;;;;;;;9.20;99.90;;;;;;5077131;28;19917;-60
2021/03/27 08:31:28;;;;;;;;;;;9.80;99.90;;;;;;5077142;28;19927;-60
2021/03/27 08:33:57;;;;;;;;;;;10.20;99.90;;;;;;5079335;28;19916;-60
2021/03/27 08:36:41;;;;;;;;;;;10.40;99.90;;;;;;5078252;28;19927;-60
2021/03/27 08:39:26;;;;;;;;;;;10.30;99.90;;;;;;5079591;28;19915;-61
2021/03/27 08:42:01;;;;;;;;;;;10.00;99.90;;;;;;5075990;28;19912;-60
2021/03/27 08:44:42;;;;;;;;;;;9.90;99.90;;;;;;5076145;28;19916;-60
2021/03/27 08:47:10;;;;;;;;;;;9.70;99.90;;;;;;5081335;28;19909;-61
2021/03/27 08:49:55;;;;;;;;;;;9.70;99.90;;;;;;5080126;28;20261;-60
2021/03/27 08:52:38;;;;;;;;;;;9.80;99.90;;;;;;5078725;28;19909;-61
2021/03/27 08:55:19;;;;;;;;;;;9.80;99.90;;;;;;5078195;28;20291;-60
2021/03/27 08:57:45;;;;;;;;;;;9.60;99.90;;;;;;5079210;28;20381;-60
2021/03/27 09:00:11;;;;;;;;;;;9.80;99.90;;;;;;5076455;28;20011;-61
2021/03/27 09:02:49;;;;;;;;;;;9.80;99.90;;;;;;5081108;28;19977;-61
2021/03/27 09:05:15;;;;;;;;;;;9.70;99.90;;;;;;5077569;28;20351;-61
2021/03/27 09:08:00;;;;;;;;;;;9.80;99.90;;;;;;5073055;28;19916;-61
2021/03/27 09:10:44;;;;;;;;;;;10.00;99.90;;;;;;5078835;28;19916;-61
2021/03/27 09:13:42;;;;;;;;;;;10.00;99.90;;;;;;5084669;28;19914;-61
2021/03/27 09:16:27;;;;;;;;;;;10.20;99.90;;;;;;5060780;28;20276;-60
2021/03/27 09:19:11;;;;;;;;;;;10.40;99.90;;;;;;5083302;28;19924;-61
2021/03/27 09:21:40;;;;;;;;;;;10.10;99.90;;;;;;5072889;28;19916;-61
2021/03/27 09:24:35;;;;;;;;;;;10.00;99.90;;;;;;5079823;28;19908;-61
2021/03/27 09:27:16;;;;;;;;;;;9.90;99.90;;;;;;5069171;28;19919;-61
2021/03/27 09:29:53;;;;;;;;;;;9.80;99.90;;;;;;5079315;28;19931;-61
2021/03/27 09:32:22;;;;;;;;;;;9.70;99.90;;;;;;5076791;28;20374;-61
2021/03/27 09:34:48;;;;;;;;;;;9.50;99.90;;;;;;5077851;28;19909;-61
2021/03/27 09:37:40;;;;;;;;;;;9.40;99.90;;;;;;5079301;28;20375;-61
2021/03/27 09:40:25;;;;;;;;;;;9.50;99.90;;;;;;5085792;28;19916;-60
2021/03/27 09:43:26;;;;;;;;;;;9.40;99.90;;;;;;5085643;28;20364;-61
2021/03/27 09:46:04;;;;;;;;;;;9.40;99.90;;;;;;5064919;28;20454;-60
2021/03/27 09:48:53;;;;;;;;;;;9.30;99.90;;;;;;5079353;28;19915;-60
2021/03/27 09:51:37;;;;;;;;;;;9.20;99.90;;;;;;5074979;28;19912;-61
2021/03/27 09:54:06;;;;;;;;;;;9.10;99.90;;;;;;5086709;28;19904;-61
2021/03/27 09:56:34;;;;;;;;;;;9.10;99.90;;;;;;5076999;28;19917;-61
2021/03/27 09:59:19;;;;;;;;;;;9.10;99.90;;;;;;5080095;28;20307;-61
2021/03/27 10:01:45;;;;;;;;;;;9.00;99.90;;;;;;5078568;28;19913;-60
2021/03/27 10:04:20;;;;;;;;;;;9.00;99.90;;;;;;5092843;28;19908;-61
2021/03/27 10:07:04;;;;;;;;;;;9.00;99.90;;;;;;5096403;28;19908;-60
2021/03/27 10:09:30;;;;;;;;;;;8.90;99.90;;;;;;5096137;28;19912;-61
2021/03/27 10:11:58;;;;;;;;;;;8.80;99.90;;;;;;5096305;28;19908;-61
2021/03/27 10:14:28;;;;;;;;;;;8.70;99.90;;;;;;5096314;28;19904;-61
2021/03/27 10:17:01;;;;;;;;;;;8.60;99.90;;;;;;5083489;28;19916;-60
2021/03/27 10:19:33;;;;;;;;;;;8.60;99.90;;;;;;5082323;28;19916;-61
2021/03/27 10:21:59;;;;;;;;;;;8.60;99.90;;;;;;5080865;28;19920;-61
2021/03/27 10:24:25;;;;;;;;;;;8.60;99.90;;;;;;5082857;28;19939;-61
2021/03/27 10:26:57;;;;;;;;;;;8.50;99.90;;;;;;5084478;28;19912;-61
2021/03/27 10:29:43;;;;;;;;;;;8.40;99.90;;;;;;5082406;28;19927;-61
2021/03/27 10:32:25;;;;;;;;;;;8.40;99.90;;;;;;5079147;28;19939;-60
2021/03/27 10:34:56;;;;;;;;;;;8.30;99.90;;;;;;5075904;28;19927;-61
2021/03/27 10:37:30;;;;;;;;;;;8.20;99.90;;;;;;5074490;28;19908;-60
2021/03/27 10:40:05;;;;;;;;;;;8.10;99.90;;;;;;5080509;28;20474;-61
2021/03/27 10:42:42;;;;;;;;;;;8.00;99.90;;;;;;5080384;28;20294;-60
2021/03/27 10:45:19;;;;;;;;;;;7.80;99.90;;;;;;5079635;28;20287;-61
2021/03/27 10:48:04;;;;;;;;;;;7.70;99.90;;;;;;5086330;28;19923;-60
2021/03/27 10:50:48;;;;;;;;;;;7.70;99.90;;;;;;5080740;28;19983;-61
2021/03/27 10:53:30;;;;;;;;;;;7.70;99.90;;;;;;5086166;28;19909;-61
2021/03/27 10:56:08;;;;;;;;;;;7.70;99.90;;;;;;5080195;28;19904;-61
2021/03/27 10:58:37;;;;;;;;;;;7.50;99.90;;;;;;5084949;28;19935;-61
2021/03/27 11:01:03;;;;;;;;;;;7.50;99.90;;;;;;5090934;28;20265;-61
2021/03/27 11:03:48;;;;;;;;;;;7.50;99.90;;;;;;5083638;28;19924;-61
2021/03/27 11:06:26;;;;;;;;;;;7.40;99.90;;;;;;5079403;28;20300;-61
2021/03/27 11:09:10;;;;;;;;;;;7.40;99.90;;;;;;5084690;28;19916;-61
2021/03/27 11:11:36;;;;;;;;;;;7.30;99.90;;;;;;5078164;28;19909;-61
2021/03/27 11:14:02;;;;;;;;;;;7.30;99.90;;;;;;5074895;28;19920;-61
2021/03/27 11:16:55;;;;;;;;;;;7.20;99.90;;;;;;5080621;28;20378;-61
2021/03/27 11:19:36;;;;;;;;;;;7.00;99.90;;;;;;5062490;28;19908;-61
2021/03/27 11:22:13;;;;;;;;;;;6.30;99.90;;;;;;5076920;28;19978;-59
2021/03/27 11:24:58;;;;;;;;;;;6.10;99.90;;;;;;5085468;28;19916;-59
2021/03/27 11:27:24;;;;;;;;;;;5.90;99.90;;;;;;5088874;28;19922;-60
2021/03/27 11:29:55;;;;;;;;;;;5.70;99.90;;;;;;5083229;28;19921;-59
2021/03/27 11:32:32;;;;;;;;;;;5.30;99.90;;;;;;5080782;28;19916;-59
2021/03/27 11:35:00;;;;;;;;;;;5.20;99.90;;;;;;5079765;28;20261;-60
2021/03/27 11:37:29;;;;;;;;;;;5.10;99.90;;;;;;5076138;28;19994;-59
2021/03/27 11:40:14;;;;;;;;;;;5.00;99.90;;;;;;5079144;28;19909;-59
2021/03/27 11:42:40;;;;;;;;;;;4.90;99.90;;;;;;5078321;28;19916;-59
2021/03/27 11:45:10;;;;;;;;;;;4.80;99.90;;;;;;5079656;28;19908;-59
2021/03/27 11:47:36;;;;;;;;;;;4.90;99.90;;;;;;5080175;28;20399;-59
2021/03/27 11:50:30;;;;;;;;;;;4.70;99.90;;;;;;5080180;28;20551;-59
2021/03/27 11:53:11;;;;;;;;;;;4.60;99.90;;;;;;5092026;28;19934;-59
2021/03/27 11:55:48;;;;;;;;;;;4.60;99.90;;;;;;5088409;28;19908;-59
2021/03/27 11:59:41;;;;;;;;;;;4.40;99.90;;;;;;5079943;28;19908;-60
2021/03/27 12:01:27;;;;;;;;;;;4.40;99.90;;;;;;5067457;28;19912;-59
2021/03/27 12:04:11;;;;;;;;;;;4.30;99.90;;;;;;5080195;28;19908;-60
2021/03/27 12:06:49;;;;;;;;;;;4.20;99.90;;;;;;5081057;28;19916;-59
2021/03/27 12:09:15;;;;;;;;;;;4.30;99.90;;;;;;5078516;28;19915;-60
2021/03/27 12:11:43;;;;;;;;;;;4.30;99.90;;;;;;5078936;28;19909;-59
2021/03/27 12:14:11;;;;;;;;;;;4.20;99.90;;;;;;5077289;28;20253;-59
2021/03/27 12:16:51;;;;;;;;;;;4.10;99.90;;;;;;5075405;28;20542;-59
2021/03/27 12:19:24;;;;;;;12.50;0.90;;;4.10;99.90;;;;;;5076555;28;20404;-59
2021/03/27 12:22:12;;;;;;;13.15;1.00;;;4.10;99.90;;;;;;5077328;28;20400;-59
2021/03/27 12:24:47;;;;;;;5.13;0.52;;;4.20;99.90;;;;;;5063790;28;20374;-59
2021/03/27 12:27:24;;;;;;;5.40;0.68;;;4.00;99.90;;;;;;5074614;28;20377;-59
2021/03/27 12:30:25;;;;;;;7.38;0.70;;;4.00;99.90;;;;;;5088232;28;20402;-60
2021/03/27 12:33:26;;;;;;;4.45;0.60;;;4.00;99.90;;;;;;5078446;28;20378;-59
2021/03/27 12:36:03;;;;;;;7.72;0.63;;;4.00;99.90;;;;;;5075962;28;21975;-58
2021/03/27 12:38:57;;;;;;;4.07;0.50;;;4.10;99.90;;;;;;5078449;28;20382;-58
2021/03/27 12:41:29;;;;;;;3.78;0.70;;;4.00;99.90;;;;;;5076211;28;20450;-58
2021/03/27 12:43:59;;;;;;;3.42;0.70;;;4.10;99.90;;;;;;5074298;28;20386;-59
2021/03/27 12:46:49;;;;;;;6.35;0.73;;;4.30;99.90;;;;;;5062652;28;20899;-58
2021/03/27 12:49:19;;;;;;;3.88;0.50;;;4.40;99.90;;;;;;5085448;28;20748;-57
2021/03/27 12:52:06;;;;;;;4.90;0.75;;;4.60;99.90;;;;;;5077939;28;20390;-58
2021/03/27 12:54:46;;;;;;;2.67;0.40;;;4.60;99.90;;;;;;5059197;28;20389;-57
2021/03/27 12:57:45;;;;;;;7.10;1.20;;;4.50;99.90;;;;;;5081003;28;20742;-58
2021/03/27 13:00:30;;;;;;;4.90;0.50;;;4.60;99.90;;;;;;5087332;28;20391;-63
2021/03/27 13:03:05;;;;;;;6.97;0.60;;;4.60;99.90;;;;;;5074331;28;20715;-63
2021/03/27 13:05:41;;;;;;;3.45;0.60;;;4.70;99.90;;;;;;5076501;28;20375;-63
2021/03/27 13:08:20;;;;;;;4.90;0.60;;;4.70;99.90;;;;;;5075273;28;20382;-63
2021/03/27 13:11:10;;;;;;;3.17;0.65;;;4.70;99.90;;;;;;5075426;28;20394;-63
2021/03/27 13:14:10;;;;;;;7.35;0.90;;;4.70;99.90;;;;;;5075675;28;20464;-63
2021/03/27 13:16:50;;;;;;;6.70;0.68;;;4.80;99.90;;;;;;5080040;28;20390;-64
2021/03/27 13:19:16;;;;;;;6.28;0.90;;;4.70;99.90;;;;;;5059169;28;20381;-65
2021/03/27 13:22:05;;;;;;;9.15;0.80;;;4.70;99.90;;;;;;5075097;28;20385;-63
2021/03/27 13:24:35;;;;;;;5.78;1.30;;;4.60;99.90;;;;;;5072599;28;20389;-63
2021/03/27 13:27:10;;;;;;;5.75;0.65;;;4.50;99.90;;;;;;5078883;28;20377;-58
2021/03/27 13:29:43;;;;;;;4.63;0.90;;;4.60;99.90;;;;;;5058245;28;20398;-60
2021/03/27 13:32:15;;;;;;;7.65;0.80;;;4.70;99.90;;;;;;5078373;28;20404;-61
2021/03/27 13:35:03;;;;;;;7.35;1.05;;;4.90;99.90;;;;;;5080249;28;20389;-60
2021/03/27 13:37:35;;;;;;;7.43;1.00;;;5.10;99.90;;;;;;5082693;28;20384;-61
2021/03/27 13:40:17;;;;;;;6.32;0.85;;;5.30;99.90;;;;;;5076336;28;20738;-61
2021/03/27 13:43:07;;;;;;;4.27;0.60;;;5.50;99.90;;;;;;5075833;28;20411;-59
2021/03/27 13:45:48;;;;;;;6.00;0.80;;;5.20;99.90;;;;;;5072397;28;20411;-60
2021/03/27 13:48:29;;;;;;;4.30;0.85;;;5.40;99.90;;;;;;5074182;28;20394;-61
2021/03/27 13:51:19;;;;;;;6.20;0.90;;;5.60;99.90;;;;;;5076435;28;20402;-59
2021/03/27 13:54:09;;;;;;;5.72;1.00;;;5.60;99.90;;;;;;5072672;28;20390;-60
2021/03/27 13:56:41;;;;;;;6.13;0.90;;;5.70;99.90;;;;;;5068547;28;20384;-63
2021/03/27 13:59:38;;;;;;;7.55;0.90;;;5.80;99.90;;;;;;5075890;28;20394;-60
2021/03/27 14:02:22;;;;;;;6.67;1.30;;;5.60;99.90;;;;;;5081289;28;20379;-61
2021/03/27 14:04:58;;;;;;;4.40;1.17;;;5.80;99.90;;;;;;5075585;28;20398;-63
2021/03/27 14:07:56;;;;;;;6.65;1.38;;;6.20;99.90;;;;;;5071790;28;21287;-62
2021/03/27 14:10:45;;;;;;;5.45;1.30;;;6.00;99.90;;;;;;5076002;28;20418;-62
2021/03/27 14:13:32;;;;;;;4.45;1.20;;;5.90;99.90;;;;;;5088798;28;20384;-62
2021/03/27 14:16:36;;;;;;;7.28;1.10;;;5.70;99.90;;;;;;5076121;28;20741;-62
2021/03/27 14:19:17;;;;;;;2.73;0.80;;;5.50;99.90;;;;;;5059993;28;20392;-62
2021/03/27 14:22:04;;;;;;;7.40;1.10;;;5.40;99.90;;;;;;5080767;28;20386;-62
2021/03/27 14:24:38;;;;;;;5.50;1.00;;;5.50;99.90;;;;;;5079903;28;20742;-51
2021/03/27 14:27:25;;;;;;;6.80;1.20;;;5.50;99.90;;;;;;5062625;28;20382;-61
2021/03/27 14:30:03;;;;;;;6.60;1.48;;;5.50;99.90;;;;;;5082106;28;20425;-61
2021/03/27 14:32:54;;;;;;;5.07;1.13;;;5.60;99.90;;;;;;5076892;28;20851;-62
2021/03/27 14:35:48;;;;;;;7.47;1.00;;;5.60;99.90;;;;;;5081045;28;20386;-61
2021/03/27 14:38:35;;;;;;;5.88;0.85;;;5.60;99.90;;;;;;5081666;28;20374;-61
2021/03/27 14:41:08;;;;;;;2.50;0.90;;;5.60;99.90;;;;;;5079520;28;20381;-61
2021/03/27 14:43:55;;;;;;;5.40;1.00;;;5.60;99.90;;;;;;5081849;28;20392;-61
2021/03/27 14:47:06;;;;;;;9.48;1.33;;;5.70;99.90;;;;;;5068119;28;20709;-62
2021/03/27 14:50:10;;;;;;;6.05;1.60;;;5.70;99.90;;;;;;5067083;28;20398;-62
2021/03/27 14:52:52;;;;;;;8.27;1.98;;;5.80;99.90;;;;;;5073160;28;20375;-62
2021/03/27 14:55:27;;;;;;;8.10;2.20;;;5.80;99.90;;;;;;5082267;28;20371;-62
2021/03/27 14:57:56;;;;;;;6.78;2.38;;;5.90;99.90;;;;;;5091889;28;20872;-62
2021/03/27 15:00:22;;;;;;;11.95;2.30;;;6.00;99.90;;;;;;5093987;28;20392;-62
2021/03/27 15:03:04;;;;;;;15.02;2.70;;;5.90;99.90;;;;;;5091455;28;20376;-62
2021/03/27 15:05:30;;;;;;;12.15;2.50;;;5.90;99.90;;;;;;5059376;28;20394;-62